createdAt,value
2019-03-23T00:01:25.264Z,31.17
2019-03-23T00:03:53.090Z,27.73
2019-03-23T00:06:30.482Z,27.13
2019-03-23T00:08:50.747Z,27.97
2019-03-23T00:11:18.643Z,26.50
2019-03-23T00:13:46.563Z,25.43
2019-03-23T00:16:14.563Z,29.07
2019-03-23T00:18:42.314Z,27.97
2019-03-23T00:21:10.226Z,31.53
2019-03-23T00:23:39.102Z,28.27
2019-03-23T00:26:07.133Z,27.20
2019-03-23T00:28:34.967Z,25.47
2019-03-23T00:31:03.819Z,37.20
2019-03-23T00:33:31.684Z,31.67
2019-03-23T00:35:59.673Z,27.63
2019-03-23T00:38:27.646Z,26.30
2019-03-23T00:40:55.551Z,26.57
2019-03-23T00:43:23.505Z,26.90
2019-03-23T00:45:51.506Z,31.37
2019-03-23T00:48:19.372Z,35.57
2019-03-23T00:50:47.586Z,26.00
2019-03-23T00:53:15.443Z,25.80
2019-03-23T00:55:43.563Z,26.43
2019-03-23T00:58:11.539Z,28.53
2019-03-23T01:00:39.629Z,24.43
2019-03-23T01:03:07.676Z,23.07
2019-03-23T01:05:35.528Z,29.27
2019-03-23T01:08:03.778Z,26.33
2019-03-23T01:10:31.623Z,29.83
2019-03-23T01:12:59.525Z,25.47
2019-03-23T01:15:27.460Z,24.67
2019-03-23T01:17:56.572Z,24.83
2019-03-23T01:20:24.838Z,26.17
2019-03-23T01:22:53.223Z,26.87
2019-03-23T01:25:21.095Z,28.67
2019-03-23T01:27:48.904Z,28.13
2019-03-23T01:30:16.938Z,27.03
2019-03-23T01:32:44.865Z,26.07
2019-03-23T01:35:12.961Z,29.70
2019-03-23T01:37:40.557Z,29.43
2019-03-23T01:40:08.449Z,33.87
2019-03-23T01:42:36.409Z,28.47
2019-03-23T01:45:06.709Z,29.23
2019-03-23T01:47:34.774Z,30.80
2019-03-23T01:50:02.810Z,26.70
2019-03-23T01:52:31.101Z,29.07
2019-03-23T01:54:59.276Z,25.73
2019-03-23T01:57:27.317Z,26.67
2019-03-23T01:59:55.240Z,25.50
2019-03-23T02:02:22.966Z,28.00
2019-03-23T02:04:51.078Z,29.80
2019-03-23T02:07:19.103Z,26.47
2019-03-23T02:09:47.196Z,31.03
2019-03-23T02:12:15.553Z,27.00
2019-03-23T02:14:43.137Z,24.43
2019-03-23T02:17:11.490Z,26.33
2019-03-23T02:19:39.425Z,26.47
2019-03-23T02:22:07.471Z,28.13
2019-03-23T02:24:35.439Z,30.13
2019-03-23T02:27:03.308Z,27.93
2019-03-23T02:29:31.020Z,34.40
2019-03-23T02:32:00.135Z,29.87
2019-03-23T02:34:28.241Z,30.17
2019-03-23T02:36:55.962Z,28.40
2019-03-23T02:39:23.885Z,35.27
2019-03-23T02:41:51.666Z,26.67
2019-03-23T02:44:19.412Z,33.57
2019-03-23T02:46:47.594Z,28.87
2019-03-23T02:49:24.887Z,27.40
2019-03-23T02:51:53.059Z,25.10
2019-03-23T02:54:20.965Z,30.00
2019-03-23T02:56:48.870Z,28.97
2019-03-23T02:59:16.817Z,30.23
2019-03-23T03:01:44.829Z,27.50
2019-03-23T03:04:13.987Z,29.97
2019-03-23T03:06:41.854Z,25.77
2019-03-23T03:09:10.193Z,24.77
2019-03-23T03:11:38.078Z,26.10
2019-03-23T03:14:05.984Z,29.13
2019-03-23T03:16:33.909Z,30.67
2019-03-23T03:19:01.937Z,28.57
2019-03-23T03:21:30.276Z,28.20
2019-03-23T03:23:58.415Z,32.40
2019-03-23T03:26:26.325Z,27.80
2019-03-23T03:28:54.339Z,30.40
2019-03-23T03:31:22.204Z,31.77
2019-03-23T03:33:49.986Z,39.40
2019-03-23T03:36:17.980Z,32.60
2019-03-23T03:38:46.088Z,31.13
2019-03-23T03:41:14.044Z,35.73
2019-03-23T03:43:41.804Z,39.53
2019-03-23T03:46:10.279Z,29.23
2019-03-23T03:48:38.340Z,31.37
2019-03-23T03:51:06.309Z,32.53
2019-03-23T03:53:34.091Z,32.60
2019-03-23T03:56:02.154Z,32.57
2019-03-23T03:58:30.151Z,31.13
2019-03-23T04:00:58.488Z,32.43
2019-03-23T04:03:26.488Z,31.93
2019-03-23T04:05:54.613Z,34.53
2019-03-23T04:08:22.520Z,33.07
2019-03-23T04:10:50.423Z,29.43
2019-03-23T04:13:18.427Z,31.17
2019-03-23T04:15:46.547Z,34.97
2019-03-23T04:18:14.344Z,28.33
2019-03-23T04:20:42.245Z,31.03
2019-03-23T04:23:10.210Z,32.23
2019-03-23T04:25:38.228Z,29.00
2019-03-23T04:28:06.342Z,31.10
2019-03-23T04:30:34.155Z,30.97
2019-03-23T04:33:02.158Z,29.30
2019-03-23T04:35:30.327Z,31.53
2019-03-23T04:37:58.253Z,30.00
2019-03-23T04:40:26.058Z,32.77
2019-03-23T04:42:53.935Z,30.83
2019-03-23T04:45:21.776Z,29.90
2019-03-23T04:47:49.699Z,30.17
2019-03-23T04:50:17.701Z,28.70
2019-03-23T04:52:45.759Z,34.00
2019-03-23T04:55:13.616Z,29.07
2019-03-23T04:57:41.518Z,32.67
2019-03-23T05:00:10.697Z,33.30
2019-03-23T05:02:38.727Z,27.00
2019-03-23T05:05:07.483Z,30.70
2019-03-23T05:07:35.540Z,32.53
2019-03-23T05:10:05.342Z,26.20
2019-03-23T05:12:33.565Z,25.97
2019-03-23T05:15:01.564Z,29.50
2019-03-23T05:17:29.573Z,26.40
2019-03-23T05:19:57.506Z,31.17
2019-03-23T05:22:25.576Z,31.80
2019-03-23T05:25:15.926Z,28.33
2019-03-23T05:27:45.498Z,29.87
2019-03-23T05:30:13.452Z,34.97
2019-03-23T05:32:41.455Z,30.80
2019-03-23T05:35:09.416Z,32.10
2019-03-23T05:37:37.865Z,32.60
2019-03-23T05:40:05.815Z,33.83
2019-03-23T05:42:34.249Z,33.67
2019-03-23T05:45:02.336Z,26.77
2019-03-23T05:47:30.367Z,30.23
2019-03-23T05:50:00.622Z,33.67
2019-03-23T05:52:28.442Z,25.73
2019-03-23T05:54:56.739Z,28.67
2019-03-23T05:57:25.297Z,30.13
2019-03-23T05:59:53.172Z,30.27
2019-03-23T06:02:21.182Z,28.93
2019-03-23T06:04:48.811Z,29.83
2019-03-23T06:07:17.871Z,31.20
2019-03-23T06:09:46.108Z,35.30
2019-03-23T06:12:14.092Z,30.00
2019-03-23T06:14:42.291Z,31.13
2019-03-23T06:17:10.845Z,33.17
2019-03-23T06:19:38.720Z,30.33
2019-03-23T06:22:06.939Z,31.23
2019-03-23T06:24:35.011Z,31.37
2019-03-23T06:27:03.019Z,36.27
2019-03-23T06:29:31.733Z,29.10
2019-03-23T06:31:59.654Z,31.80
2019-03-23T06:34:27.936Z,32.47
2019-03-23T06:36:57.293Z,31.00
2019-03-23T06:39:25.368Z,35.47
2019-03-23T06:41:53.790Z,31.23
2019-03-23T06:44:24.129Z,31.07
2019-03-23T06:46:52.731Z,37.17
2019-03-23T06:49:20.853Z,32.40
2019-03-23T06:51:48.732Z,29.87
2019-03-23T06:54:16.646Z,27.87
2019-03-23T06:56:44.471Z,29.63
2019-03-23T06:59:12.355Z,37.50
2019-03-23T07:01:40.253Z,34.33
2019-03-23T07:04:08.892Z,33.67
2019-03-23T07:06:36.948Z,34.33
2019-03-23T07:09:15.773Z,32.10
2019-03-23T07:11:36.278Z,34.13
2019-03-23T07:14:04.824Z,32.87
2019-03-23T07:16:33.002Z,29.50
2019-03-23T07:19:01.430Z,30.33
2019-03-23T07:21:29.266Z,30.43
2019-03-23T07:23:57.654Z,28.57
2019-03-23T07:26:25.979Z,33.33
2019-03-23T07:28:54.139Z,28.70
2019-03-23T07:31:22.239Z,27.90
2019-03-23T07:33:50.393Z,27.97
2019-03-23T07:36:18.882Z,26.13
2019-03-23T07:38:47.951Z,28.57
2019-03-23T07:41:16.095Z,27.37
2019-03-23T07:43:45.027Z,27.63
2019-03-23T07:46:13.097Z,25.73
2019-03-23T07:48:41.415Z,27.83
2019-03-23T07:51:09.458Z,24.50
2019-03-23T07:53:37.469Z,30.47
2019-03-23T07:56:07.111Z,33.10
2019-03-23T07:58:36.597Z,28.97
2019-03-23T08:01:06.751Z,30.17
2019-03-23T08:03:34.804Z,31.10
2019-03-23T08:06:02.854Z,32.47
2019-03-23T08:08:30.870Z,41.90
2019-03-23T08:10:58.633Z,28.17
2019-03-23T08:13:26.604Z,27.83
2019-03-23T08:15:56.013Z,32.53
2019-03-23T08:18:24.239Z,26.60
2019-03-23T08:20:52.355Z,29.47
2019-03-23T08:23:20.284Z,31.57
2019-03-23T08:25:48.473Z,34.17
2019-03-23T08:28:16.488Z,33.03
2019-03-23T08:30:44.887Z,30.43
2019-03-23T08:33:15.533Z,31.47
2019-03-23T08:35:43.462Z,28.23
2019-03-23T08:38:11.318Z,34.80
2019-03-23T08:40:38.922Z,32.60
2019-03-23T08:43:06.774Z,32.93
2019-03-23T08:45:34.651Z,34.77
2019-03-23T08:48:02.993Z,35.40
2019-03-23T08:50:31.021Z,35.37
2019-03-23T08:52:59.067Z,34.10
2019-03-23T08:55:26.904Z,33.30
2019-03-23T08:57:54.890Z,32.67
2019-03-23T09:00:22.896Z,38.63
2019-03-23T09:02:50.899Z,36.40
2019-03-23T09:05:18.805Z,36.23
2019-03-23T09:07:46.863Z,37.10
2019-03-23T09:10:14.852Z,39.13
2019-03-23T09:12:42.919Z,36.53
2019-03-23T09:15:10.959Z,37.00
2019-03-23T09:17:38.939Z,38.50
2019-03-23T09:20:07.731Z,41.23
2019-03-23T09:22:35.435Z,39.73
2019-03-23T09:25:04.040Z,43.37
2019-03-23T09:27:31.999Z,39.03
2019-03-23T09:30:00.166Z,39.93
2019-03-23T09:32:28.343Z,40.47
2019-03-23T09:34:57.431Z,41.90
2019-03-23T09:37:25.430Z,36.90
2019-03-23T09:39:53.308Z,35.90
2019-03-23T09:42:21.297Z,37.40
2019-03-23T09:44:49.305Z,36.57
2019-03-23T09:47:17.289Z,40.67
2019-03-23T09:49:45.156Z,40.97
2019-03-23T09:52:13.128Z,41.03
2019-03-23T09:54:41.352Z,38.67
2019-03-23T09:57:09.369Z,38.67
2019-03-23T09:59:37.322Z,34.90
2019-03-23T10:02:05.725Z,38.93
2019-03-23T10:04:34.081Z,42.27
2019-03-23T10:07:02.042Z,40.83
2019-03-23T10:09:30.457Z,42.63
2019-03-23T10:11:59.294Z,36.93
2019-03-23T10:14:27.390Z,45.43
2019-03-23T10:16:55.333Z,39.87
2019-03-23T10:19:23.347Z,36.07
2019-03-23T10:21:51.411Z,40.87
2019-03-23T10:24:19.547Z,42.50
2019-03-23T10:26:47.495Z,40.43
2019-03-23T10:29:16.489Z,36.87
2019-03-23T10:31:44.465Z,38.73
2019-03-23T10:34:12.308Z,42.37
2019-03-23T10:36:40.443Z,40.37
2019-03-23T10:39:08.308Z,37.40
2019-03-23T10:41:36.325Z,38.83
2019-03-23T10:44:04.191Z,37.37
2019-03-23T10:46:32.063Z,37.93
2019-03-23T10:49:00.035Z,36.07
2019-03-23T10:51:27.937Z,34.70
2019-03-23T10:53:55.790Z,40.80
2019-03-23T10:56:24.071Z,42.20
2019-03-23T10:58:52.025Z,39.50
2019-03-23T11:01:20.354Z,39.23
2019-03-23T11:03:48.310Z,35.33
2019-03-23T11:06:16.213Z,38.00
2019-03-23T11:08:44.867Z,44.60
2019-03-23T11:11:12.761Z,41.47
2019-03-23T11:13:40.936Z,39.30
2019-03-23T11:16:08.904Z,37.63
2019-03-23T11:18:37.802Z,38.67
2019-03-23T11:21:07.134Z,37.13
2019-03-23T11:23:35.128Z,39.97
2019-03-23T11:26:02.989Z,35.53
2019-03-23T11:28:30.846Z,38.80
2019-03-23T11:30:58.820Z,37.00
2019-03-23T11:33:26.819Z,38.70
2019-03-23T11:35:57.982Z,39.80
2019-03-23T11:38:24.778Z,36.70
2019-03-23T11:40:55.170Z,35.70
2019-03-23T11:43:22.481Z,36.77
2019-03-23T11:45:50.632Z,41.73
2019-03-23T11:48:18.635Z,40.73
2019-03-23T11:50:46.428Z,39.73
2019-03-23T11:53:14.295Z,40.23
2019-03-23T11:55:42.493Z,41.37
2019-03-23T11:58:10.996Z,40.37
2019-03-23T12:00:38.962Z,40.37
2019-03-23T12:03:06.860Z,38.03
2019-03-23T12:05:34.834Z,40.23
2019-03-23T12:08:02.664Z,36.63
2019-03-23T12:10:30.556Z,42.30
2019-03-23T12:12:58.558Z,39.43
2019-03-23T12:15:29.809Z,43.57
2019-03-23T12:17:57.395Z,45.73
2019-03-23T12:20:25.317Z,37.97
2019-03-23T12:22:53.180Z,36.60
2019-03-23T12:25:21.204Z,44.63
2019-03-23T12:27:49.204Z,40.50
2019-03-23T12:30:17.664Z,34.43
2019-03-23T12:32:45.379Z,36.93
2019-03-23T12:35:13.533Z,36.77
2019-03-23T12:37:41.662Z,37.00
2019-03-23T12:40:11.005Z,42.93
2019-03-23T12:42:39.074Z,38.17
2019-03-23T12:45:07.324Z,42.13
2019-03-23T12:47:35.386Z,39.40
2019-03-23T12:50:03.905Z,40.23
2019-03-23T12:52:32.081Z,39.20
2019-03-23T12:55:00.263Z,43.63
2019-03-23T12:57:28.386Z,43.33
2019-03-23T12:59:56.356Z,44.73
2019-03-23T13:02:24.733Z,45.33
2019-03-23T13:04:53.065Z,45.43
2019-03-23T13:07:21.084Z,43.13
2019-03-23T13:09:49.127Z,44.83
2019-03-23T13:12:16.850Z,45.13
2019-03-23T13:14:44.783Z,45.07
2019-03-23T13:17:12.705Z,44.43
2019-03-23T13:19:40.706Z,42.33
2019-03-23T13:22:08.571Z,46.20
2019-03-23T13:24:36.588Z,42.87
2019-03-23T13:27:04.606Z,48.13
2019-03-23T13:29:32.656Z,46.13
2019-03-23T13:32:00.663Z,43.40
2019-03-23T13:34:28.848Z,43.37
2019-03-23T13:36:57.743Z,43.47
2019-03-23T13:39:25.585Z,46.33
2019-03-23T13:41:54.984Z,40.63
2019-03-23T13:44:22.813Z,46.10
2019-03-23T13:46:50.839Z,44.90
2019-03-23T13:49:19.232Z,41.07
2019-03-23T13:51:47.159Z,48.73
2019-03-23T13:54:15.170Z,47.87
2019-03-23T13:56:43.239Z,50.70
2019-03-23T13:59:11.024Z,47.13
2019-03-23T14:01:39.025Z,44.03
2019-03-23T14:04:07.096Z,41.23
2019-03-23T14:06:35.108Z,45.30
2019-03-23T14:09:06.182Z,40.87
2019-03-23T14:11:34.206Z,44.53
2019-03-23T14:14:02.114Z,43.00
2019-03-23T14:16:30.107Z,45.00
2019-03-23T14:18:58.091Z,51.17
2019-03-23T14:21:26.679Z,44.90
2019-03-23T14:23:55.255Z,43.80
2019-03-23T14:26:23.239Z,46.83
2019-03-23T14:28:51.496Z,41.83
2019-03-23T14:31:19.598Z,43.53
2019-03-23T14:33:47.603Z,44.93
2019-03-23T14:36:15.466Z,44.20
2019-03-23T14:38:43.448Z,47.77
2019-03-23T14:41:11.491Z,43.23
2019-03-23T14:43:39.526Z,42.17
2019-03-23T14:46:07.391Z,42.87
2019-03-23T14:48:35.403Z,47.40
2019-03-23T14:51:03.571Z,39.97
2019-03-23T14:53:31.804Z,44.60
2019-03-23T14:55:59.694Z,47.13
2019-03-23T14:58:27.804Z,42.07
2019-03-23T15:00:55.675Z,41.60
2019-03-23T15:03:23.663Z,42.87
2019-03-23T15:05:51.514Z,41.07
2019-03-23T15:08:19.524Z,43.93
2019-03-23T15:10:47.825Z,41.97
2019-03-23T15:13:15.811Z,39.87
2019-03-23T15:15:43.765Z,44.10
2019-03-23T15:18:11.920Z,45.20
2019-03-23T15:20:39.787Z,45.03
2019-03-23T15:23:07.805Z,39.47
2019-03-23T15:25:35.602Z,43.67
2019-03-23T15:28:03.493Z,47.27
2019-03-23T15:30:31.521Z,41.67
2019-03-23T15:32:59.837Z,42.90
2019-03-23T15:35:27.906Z,49.80
2019-03-23T15:37:55.919Z,47.27
2019-03-23T15:40:23.977Z,43.93
2019-03-23T15:42:52.101Z,43.13
2019-03-23T15:45:19.962Z,43.37
2019-03-23T15:47:48.370Z,50.47
2019-03-23T15:50:16.267Z,45.77
2019-03-23T15:52:44.115Z,42.83
2019-03-23T15:55:12.132Z,59.13
2019-03-23T15:57:40.420Z,44.33
2019-03-23T16:00:10.765Z,45.83
2019-03-23T16:02:38.490Z,43.07
2019-03-23T16:05:06.860Z,48.90
2019-03-23T16:07:35.866Z,46.10
2019-03-23T16:10:05.815Z,45.47
2019-03-23T16:12:35.301Z,42.37
2019-03-23T16:15:05.499Z,47.17
2019-03-23T16:17:33.433Z,42.90
2019-03-23T16:20:01.472Z,50.80
2019-03-23T16:22:29.514Z,46.87
2019-03-23T16:24:57.461Z,48.30
2019-03-23T16:27:25.588Z,46.77
2019-03-23T16:29:53.475Z,45.17
2019-03-23T16:32:21.596Z,47.37
2019-03-23T16:34:49.963Z,48.57
2019-03-23T16:37:17.822Z,43.43
2019-03-23T16:39:45.730Z,49.23
2019-03-23T16:42:13.627Z,43.07
2019-03-23T16:44:41.664Z,46.57
2019-03-23T16:47:09.605Z,44.90
2019-03-23T16:49:37.789Z,45.20
2019-03-23T16:52:05.912Z,48.77
2019-03-23T16:54:33.905Z,47.70
2019-03-23T16:57:01.914Z,50.50
2019-03-23T16:59:30.010Z,46.80
2019-03-23T17:01:57.993Z,49.40
2019-03-23T17:04:26.997Z,50.83
2019-03-23T17:06:55.025Z,50.80
2019-03-23T17:09:23.517Z,48.10
2019-03-23T17:11:52.777Z,50.17
2019-03-23T17:14:21.391Z,45.37
2019-03-23T17:16:49.324Z,47.30
2019-03-23T17:19:17.639Z,46.97
2019-03-23T17:21:45.664Z,51.90
2019-03-23T17:24:13.534Z,43.43
2019-03-23T17:26:41.537Z,48.70
2019-03-23T17:29:09.644Z,47.03
2019-03-23T17:31:37.561Z,43.77
2019-03-23T17:34:05.609Z,44.53
2019-03-23T17:36:33.617Z,45.33
2019-03-23T17:39:02.053Z,42.77
2019-03-23T17:41:32.060Z,46.60
2019-03-23T17:44:00.217Z,44.63
2019-03-23T17:46:28.382Z,45.90
2019-03-23T17:48:56.334Z,49.83
2019-03-23T17:51:24.216Z,40.70
2019-03-23T17:53:58.606Z,44.70
2019-03-23T17:56:22.454Z,46.50
2019-03-23T17:58:50.445Z,42.47
2019-03-23T18:01:19.575Z,40.20
2019-03-23T18:03:48.017Z,45.80
2019-03-23T18:06:16.337Z,47.13
2019-03-23T18:08:44.346Z,45.47
2019-03-23T18:11:12.325Z,44.07
2019-03-23T18:13:40.372Z,44.63
2019-03-23T18:16:08.144Z,45.27
2019-03-23T18:18:36.336Z,46.30
2019-03-23T18:21:04.794Z,46.73
2019-03-23T18:23:32.674Z,50.40
2019-03-23T18:26:00.691Z,52.17
2019-03-23T18:28:28.769Z,43.60
2019-03-23T18:30:56.787Z,47.77
2019-03-23T18:33:24.638Z,51.13
2019-03-23T18:35:52.634Z,43.97
2019-03-23T18:38:21.193Z,48.80
2019-03-23T18:40:49.680Z,58.53
2019-03-23T18:43:26.998Z,57.73
2019-03-23T18:45:47.399Z,56.70
2019-03-23T18:48:15.279Z,69.70
2019-03-23T18:50:43.388Z,62.77
2019-03-23T18:53:11.451Z,54.53
2019-03-23T18:55:39.180Z,58.53
2019-03-23T18:58:07.441Z,55.77
2019-03-23T19:00:37.876Z,55.80
2019-03-23T19:03:06.139Z,49.90
2019-03-23T19:05:34.497Z,50.23
2019-03-23T19:08:02.676Z,46.80
2019-03-23T19:10:30.613Z,49.70
2019-03-23T19:12:58.767Z,43.53
2019-03-23T19:15:27.258Z,51.53
2019-03-23T19:17:55.334Z,49.40
2019-03-23T19:20:23.706Z,62.37
2019-03-23T19:22:51.533Z,55.03
2019-03-23T19:25:19.580Z,54.33
2019-03-23T19:27:49.296Z,51.77
2019-03-23T19:30:18.916Z,42.20
2019-03-23T19:32:46.938Z,36.97
2019-03-23T19:35:15.883Z,36.87
2019-03-23T19:37:43.976Z,43.73
2019-03-23T19:40:12.315Z,35.73
2019-03-23T19:42:40.189Z,35.13
2019-03-23T19:45:08.533Z,38.23
2019-03-23T19:47:36.418Z,36.57
2019-03-23T19:50:05.161Z,36.80
2019-03-23T19:52:33.629Z,35.33
2019-03-23T19:55:01.732Z,33.53
2019-03-23T19:57:29.902Z,35.43
2019-03-23T19:59:57.888Z,33.33
2019-03-23T20:02:26.201Z,41.87
2019-03-23T20:04:55.130Z,41.80
2019-03-23T20:07:32.715Z,42.10
2019-03-23T20:09:53.237Z,45.27
2019-03-23T20:12:21.265Z,47.57
2019-03-23T20:14:49.367Z,45.83
2019-03-23T20:17:17.320Z,44.90
2019-03-23T20:19:45.269Z,48.37
2019-03-23T20:22:12.954Z,72.40
2019-03-23T20:24:40.809Z,57.07
2019-03-23T20:27:08.651Z,54.80
2019-03-23T20:29:36.899Z,57.93
2019-03-23T20:32:05.954Z,62.10
2019-03-23T20:34:33.986Z,56.03
2019-03-23T20:37:01.871Z,52.97
2019-03-23T20:39:29.942Z,53.40
2019-03-23T20:41:57.997Z,50.23
2019-03-23T20:44:25.965Z,51.20
2019-03-23T20:46:54.930Z,53.10
2019-03-23T20:49:23.438Z,51.33
2019-03-23T20:51:54.194Z,58.77
2019-03-23T20:54:23.065Z,49.63
2019-03-23T20:56:51.158Z,43.63
2019-03-23T20:59:18.881Z,51.23
2019-03-23T21:01:46.941Z,48.23
2019-03-23T21:04:15.025Z,44.87
2019-03-23T21:06:44.059Z,43.30
2019-03-23T21:09:12.077Z,42.23
2019-03-23T21:11:40.160Z,46.93
2019-03-23T21:14:08.489Z,43.57
2019-03-23T21:16:36.358Z,42.43
2019-03-23T21:19:04.650Z,50.40
2019-03-23T21:21:33.492Z,58.13
2019-03-23T21:24:02.035Z,55.87
2019-03-23T21:26:30.159Z,53.57
2019-03-23T21:28:58.599Z,55.03
2019-03-23T21:31:26.900Z,51.13
2019-03-23T21:33:55.500Z,53.87
2019-03-23T21:36:24.322Z,50.20
2019-03-23T21:38:52.991Z,56.50
2019-03-23T21:41:20.998Z,46.93
2019-03-23T21:43:48.827Z,79.87
2019-03-23T21:46:17.811Z,61.23
2019-03-23T21:48:45.882Z,56.53
2019-03-23T21:51:13.916Z,53.43
2019-03-23T21:53:41.896Z,55.33
2019-03-23T21:56:09.796Z,46.83
2019-03-23T21:58:37.545Z,54.67
2019-03-23T22:01:06.130Z,54.70
2019-03-23T22:03:34.575Z,49.30
2019-03-23T22:06:02.558Z,48.43
2019-03-23T22:08:30.424Z,47.73
2019-03-23T22:10:58.429Z,53.97
2019-03-23T22:13:26.373Z,48.27
2019-03-23T22:15:54.423Z,50.67
2019-03-23T22:18:22.178Z,46.80
2019-03-23T22:20:50.365Z,55.83
2019-03-23T22:23:18.230Z,51.80
2019-03-23T22:25:46.143Z,50.33
2019-03-23T22:28:14.041Z,48.33
2019-03-23T22:30:42.025Z,48.60
2019-03-23T22:33:10.025Z,49.17
2019-03-23T22:35:37.957Z,59.70
2019-03-23T22:38:07.794Z,65.37
2019-03-23T22:40:35.766Z,55.07
2019-03-23T22:43:03.673Z,51.53
2019-03-23T22:45:31.883Z,55.73
2019-03-23T22:47:59.759Z,54.30
2019-03-23T22:50:28.070Z,60.33
2019-03-23T22:52:57.166Z,66.73
2019-03-23T22:55:25.036Z,59.03
2019-03-23T22:57:53.066Z,56.37
2019-03-23T23:00:41.490Z,57.00
2019-03-23T23:03:11.226Z,56.87
2019-03-23T23:05:39.250Z,59.10
2019-03-23T23:08:07.297Z,58.07
2019-03-23T23:10:37.076Z,60.30
2019-03-23T23:13:05.101Z,55.73
2019-03-23T23:15:33.539Z,51.27
2019-03-23T23:18:02.618Z,52.97
2019-03-23T23:20:30.685Z,54.57
2019-03-23T23:22:58.708Z,50.87
2019-03-23T23:25:26.687Z,53.30
2019-03-23T23:27:54.406Z,68.20
2019-03-23T23:30:22.329Z,57.03
2019-03-23T23:32:50.306Z,56.73
2019-03-23T23:35:18.331Z,48.33
2019-03-23T23:37:47.163Z,55.83
2019-03-23T23:40:15.309Z,58.53
2019-03-23T23:42:43.118Z,48.87
2019-03-23T23:45:15.778Z,52.40
2019-03-23T23:47:40.967Z,52.13
2019-03-23T23:50:09.160Z,52.73
2019-03-23T23:52:37.387Z,62.43
2019-03-23T23:55:05.572Z,53.93
2019-03-23T23:57:33.572Z,50.93
